sensor_id;sensor_type;location;lat;lon;timestamp;temperature;humidity
19007;DHT22;9636;47.382;8.480;2023-09-19T00:00:31;22.60;99.90
19007;DHT22;9636;47.382;8.480;2023-09-19T00:02:59;22.60;99.90
19007;DHT22;9636;47.382;8.480;2023-09-19T00:05:28;22.60;99.90
19007;DHT22;9636;47.382;8.480;2023-09-19T00:07:56;22.60;99.90
19007;DHT22;9636;47.382;8.480;2023-09-19T00:10:24;22.60;99.90
19007;DHT22;9636;47.382;8.480;2023-09-19T00:12:53;22.60;99.90
19007;DHT22;9636;47.382;8.480;2023-09-19T00:15:21;22.60;99.90
19007;DHT22;9636;47.382;8.480;2023-09-19T00:17:48;22.50;99.90
19007;DHT22;9636;47.382;8.480;2023-09-19T00:20:18;22.50;99.90
19007;DHT22;9636;47.382;8.480;2023-09-19T00:22:48;22.50;99.90
19007;DHT22;9636;47.382;8.480;2023-09-19T00:25:15;22.50;99.90
19007;DHT22;9636;47.382;8.480;2023-09-19T00:27:42;22.50;99.90
19007;DHT22;9636;47.382;8.480;2023-09-19T00:30:11;22.50;99.90
19007;DHT22;9636;47.382;8.480;2023-09-19T00:32:41;22.50;99.90
19007;DHT22;9636;47.382;8.480;2023-09-19T00:35:09;22.50;99.90
19007;DHT22;9636;47.382;8.480;2023-09-19T00:37:37;22.40;99.90
19007;DHT22;9636;47.382;8.480;2023-09-19T00:40:07;22.50;99.90
19007;DHT22;9636;47.382;8.480;2023-09-19T00:42:38;22.40;99.90
19007;DHT22;9636;47.382;8.480;2023-09-19T00:45:06;22.40;99.90
19007;DHT22;9636;47.382;8.480;2023-09-19T00:47:35;22.40;99.90
19007;DHT22;9636;47.382;8.480;2023-09-19T00:50:04;22.40;99.90
19007;DHT22;9636;47.382;8.480;2023-09-19T00:52:33;22.40;99.90
19007;DHT22;9636;47.382;8.480;2023-09-19T00:55:02;22.40;99.90
19007;DHT22;9636;47.382;8.480;2023-09-19T00:57:30;22.40;99.90
19007;DHT22;9636;47.382;8.480;2023-09-19T01:00:00;22.40;99.90
19007;DHT22;9636;47.382;8.480;2023-09-19T01:02:31;22.30;99.90
19007;DHT22;9636;47.382;8.480;2023-09-19T01:04:58;22.30;99.90
19007;DHT22;9636;47.382;8.480;2023-09-19T01:07:25;22.30;99.90
19007;DHT22;9636;47.382;8.480;2023-09-19T01:09:52;22.30;99.90
19007;DHT22;9636;47.382;8.480;2023-09-19T01:12:29;22.30;99.90
19007;DHT22;9636;47.382;8.480;2023-09-19T01:15:05;22.30;99.90
19007;DHT22;9636;47.382;8.480;2023-09-19T01:17:39;22.30;99.90
19007;DHT22;9636;47.382;8.480;2023-09-19T01:20:24;22.30;99.90
19007;DHT22;9636;47.382;8.480;2023-09-19T01:23:00;22.30;99.90
19007;DHT22;9636;47.382;8.480;2023-09-19T01:25:45;22.30;99.90
19007;DHT22;9636;47.382;8.480;2023-09-19T01:28:31;22.20;99.90
19007;DHT22;9636;47.382;8.480;2023-09-19T01:31:04;22.20;99.90
19007;DHT22;9636;47.382;8.480;2023-09-19T01:33:53;22.20;99.90
19007;DHT22;9636;47.382;8.480;2023-09-19T01:36:22;22.20;99.90
19007;DHT22;9636;47.382;8.480;2023-09-19T01:38:50;22.20;99.90
19007;DHT22;9636;47.382;8.480;2023-09-19T01:41:22;22.20;99.90
19007;DHT22;9636;47.382;8.480;2023-09-19T01:43:50;22.10;99.90
19007;DHT22;9636;47.382;8.480;2023-09-19T01:46:22;22.20;99.90
19007;DHT22;9636;47.382;8.480;2023-09-19T01:48:57;22.10;99.90
19007;DHT22;9636;47.382;8.480;2023-09-19T01:51:33;22.10;99.90
19007;DHT22;9636;47.382;8.480;2023-09-19T01:54:03;22.10;99.90
19007;DHT22;9636;47.382;8.480;2023-09-19T01:56:40;22.10;99.90
19007;DHT22;9636;47.382;8.480;2023-09-19T01:59:13;22.10;99.90
19007;DHT22;9636;47.382;8.480;2023-09-19T02:01:45;22.10;99.90
19007;DHT22;9636;47.382;8.480;2023-09-19T02:04:12;22.10;99.90
19007;DHT22;9636;47.382;8.480;2023-09-19T02:06:40;22.10;99.90
19007;DHT22;9636;47.382;8.480;2023-09-19T02:09:07;22.10;99.90
19007;DHT22;9636;47.382;8.480;2023-09-19T02:11:34;22.10;99.90
19007;DHT22;9636;47.382;8.480;2023-09-19T02:14:02;22.00;99.90
19007;DHT22;9636;47.382;8.480;2023-09-19T02:16:30;22.00;99.90
19007;DHT22;9636;47.382;8.480;2023-09-19T02:18:58;22.00;99.90
19007;DHT22;9636;47.382;8.480;2023-09-19T02:21:26;22.00;99.90
19007;DHT22;9636;47.382;8.480;2023-09-19T02:23:55;22.00;99.90
19007;DHT22;9636;47.382;8.480;2023-09-19T02:26:21;22.00;99.90
19007;DHT22;9636;47.382;8.480;2023-09-19T02:28:49;22.00;99.90
19007;DHT22;9636;47.382;8.480;2023-09-19T02:31:15;22.00;99.90
19007;DHT22;9636;47.382;8.480;2023-09-19T02:33:43;21.90;99.90
19007;DHT22;9636;47.382;8.480;2023-09-19T02:36:13;22.00;99.90
19007;DHT22;9636;47.382;8.480;2023-09-19T02:38:42;21.90;99.90
19007;DHT22;9636;47.382;8.480;2023-09-19T02:41:09;21.90;99.90
19007;DHT22;9636;47.382;8.480;2023-09-19T02:43:37;21.90;99.90
19007;DHT22;9636;47.382;8.480;2023-09-19T02:46:04;21.90;99.90
19007;DHT22;9636;47.382;8.480;2023-09-19T02:48:31;21.90;99.90
19007;DHT22;9636;47.382;8.480;2023-09-19T02:51:00;21.90;99.90
19007;DHT22;9636;47.382;8.480;2023-09-19T02:53:28;21.90;99.90
19007;DHT22;9636;47.382;8.480;2023-09-19T02:55:56;21.90;99.90
19007;DHT22;9636;47.382;8.480;2023-09-19T02:58:24;21.80;99.90
19007;DHT22;9636;47.382;8.480;2023-09-19T03:00:53;21.80;99.90
19007;DHT22;9636;47.382;8.480;2023-09-19T03:03:20;21.80;99.90
19007;DHT22;9636;47.382;8.480;2023-09-19T03:05:48;21.80;99.90
19007;DHT22;9636;47.382;8.480;2023-09-19T03:08:17;21.80;99.90
19007;DHT22;9636;47.382;8.480;2023-09-19T03:10:47;21.80;99.90
19007;DHT22;9636;47.382;8.480;2023-09-19T03:13:14;21.80;99.90
19007;DHT22;9636;47.382;8.480;2023-09-19T03:15:41;21.80;99.90
19007;DHT22;9636;47.382;8.480;2023-09-19T03:18:09;21.80;99.90
19007;DHT22;9636;47.382;8.480;2023-09-19T03:20:36;21.80;99.90
19007;DHT22;9636;47.382;8.480;2023-09-19T03:23:04;21.80;99.90
19007;DHT22;9636;47.382;8.480;2023-09-19T03:25:33;21.70;99.90
19007;DHT22;9636;47.382;8.480;2023-09-19T03:28:03;21.70;99.90
19007;DHT22;9636;47.382;8.480;2023-09-19T03:30:31;21.70;99.90
19007;DHT22;9636;47.382;8.480;2023-09-19T03:32:59;21.70;99.90
19007;DHT22;9636;47.382;8.480;2023-09-19T03:35:26;21.70;99.90
19007;DHT22;9636;47.382;8.480;2023-09-19T03:37:53;21.70;99.90
19007;DHT22;9636;47.382;8.480;2023-09-19T03:40:20;21.70;99.90
19007;DHT22;9636;47.382;8.480;2023-09-19T03:42:47;21.70;99.90
19007;DHT22;9636;47.382;8.480;2023-09-19T03:45:15;21.70;99.90
19007;DHT22;9636;47.382;8.480;2023-09-19T03:47:43;21.70;99.90
19007;DHT22;9636;47.382;8.480;2023-09-19T03:50:12;21.70;99.90
19007;DHT22;9636;47.382;8.480;2023-09-19T03:52:42;21.70;99.90
19007;DHT22;9636;47.382;8.480;2023-09-19T03:55:09;21.60;99.90
19007;DHT22;9636;47.382;8.480;2023-09-19T03:57:36;21.70;99.90
19007;DHT22;9636;47.382;8.480;2023-09-19T04:00:04;21.70;99.90
19007;DHT22;9636;47.382;8.480;2023-09-19T04:02:37;21.60;99.90
19007;DHT22;9636;47.382;8.480;2023-09-19T04:05:05;21.60;99.90
19007;DHT22;9636;47.382;8.480;2023-09-19T04:07:32;21.60;99.90
19007;DHT22;9636;47.382;8.480;2023-09-19T04:10:00;21.60;99.90
19007;DHT22;9636;47.382;8.480;2023-09-19T04:12:27;21.60;99.90
19007;DHT22;9636;47.382;8.480;2023-09-19T04:14:54;21.60;99.90
19007;DHT22;9636;47.382;8.480;2023-09-19T04:17:21;21.60;99.90
19007;DHT22;9636;47.382;8.480;2023-09-19T04:19:50;21.60;99.90
19007;DHT22;9636;47.382;8.480;2023-09-19T04:22:16;21.60;99.90
19007;DHT22;9636;47.382;8.480;2023-09-19T04:24:43;21.60;99.90
19007;DHT22;9636;47.382;8.480;2023-09-19T04:27:10;21.60;99.90
19007;DHT22;9636;47.382;8.480;2023-09-19T04:29:38;21.60;99.90
19007;DHT22;9636;47.382;8.480;2023-09-19T04:32:05;21.50;99.90
19007;DHT22;9636;47.382;8.480;2023-09-19T04:34:33;21.50;99.90
19007;DHT22;9636;47.382;8.480;2023-09-19T04:37:01;21.50;99.90
19007;DHT22;9636;47.382;8.480;2023-09-19T04:39:29;21.50;99.90
19007;DHT22;9636;47.382;8.480;2023-09-19T04:41:56;21.50;99.90
19007;DHT22;9636;47.382;8.480;2023-09-19T04:44:23;21.50;99.90
19007;DHT22;9636;47.382;8.480;2023-09-19T04:46:50;21.50;99.90
19007;DHT22;9636;47.382;8.480;2023-09-19T04:49:17;21.50;99.90
19007;DHT22;9636;47.382;8.480;2023-09-19T04:51:44;21.50;99.90
19007;DHT22;9636;47.382;8.480;2023-09-19T04:54:14;21.50;99.90
19007;DHT22;9636;47.382;8.480;2023-09-19T04:56:41;21.50;99.90
19007;DHT22;9636;47.382;8.480;2023-09-19T04:59:08;21.50;99.90
19007;DHT22;9636;47.382;8.480;2023-09-19T05:01:36;21.50;99.90
19007;DHT22;9636;47.382;8.480;2023-09-19T05:04:03;21.50;99.90
19007;DHT22;9636;47.382;8.480;2023-09-19T05:06:30;21.40;99.90
19007;DHT22;9636;47.382;8.480;2023-09-19T05:08:57;21.40;99.90
19007;DHT22;9636;47.382;8.480;2023-09-19T05:11:25;21.40;99.90
19007;DHT22;9636;47.382;8.480;2023-09-19T05:13:52;21.40;99.90
19007;DHT22;9636;47.382;8.480;2023-09-19T05:16:19;21.40;99.90
19007;DHT22;9636;47.382;8.480;2023-09-19T05:18:46;21.40;99.90
19007;DHT22;9636;47.382;8.480;2023-09-19T05:21:13;21.40;99.90
19007;DHT22;9636;47.382;8.480;2023-09-19T05:23:40;21.40;99.90
19007;DHT22;9636;47.382;8.480;2023-09-19T05:26:07;21.40;99.90
19007;DHT22;9636;47.382;8.480;2023-09-19T05:28:37;21.40;99.90
19007;DHT22;9636;47.382;8.480;2023-09-19T05:31:04;21.40;99.90
19007;DHT22;9636;47.382;8.480;2023-09-19T05:33:30;21.40;99.90
19007;DHT22;9636;47.382;8.480;2023-09-19T05:35:58;21.40;99.90
19007;DHT22;9636;47.382;8.480;2023-09-19T05:38:25;21.40;99.90
19007;DHT22;9636;47.382;8.480;2023-09-19T05:40:53;21.40;99.90
19007;DHT22;9636;47.382;8.480;2023-09-19T05:43:19;21.40;99.90
19007;DHT22;9636;47.382;8.480;2023-09-19T05:45:47;21.40;99.90
19007;DHT22;9636;47.382;8.480;2023-09-19T05:48:17;21.40;99.90
19007;DHT22;9636;47.382;8.480;2023-09-19T05:50:46;21.40;99.90
19007;DHT22;9636;47.382;8.480;2023-09-19T05:53:14;21.40;99.90
19007;DHT22;9636;47.382;8.480;2023-09-19T05:55:41;21.50;99.90
19007;DHT22;9636;47.382;8.480;2023-09-19T05:58:08;21.50;99.90
19007;DHT22;9636;47.382;8.480;2023-09-19T06:00:39;21.50;99.90
19007;DHT22;9636;47.382;8.480;2023-09-19T06:03:10;21.50;99.90
19007;DHT22;9636;47.382;8.480;2023-09-19T06:05:37;21.50;99.90
19007;DHT22;9636;47.382;8.480;2023-09-19T06:08:07;21.50;99.90
19007;DHT22;9636;47.382;8.480;2023-09-19T06:10:35;21.50;99.90
19007;DHT22;9636;47.382;8.480;2023-09-19T06:13:02;21.60;99.90
19007;DHT22;9636;47.382;8.480;2023-09-19T06:15:30;21.60;99.90
19007;DHT22;9636;47.382;8.480;2023-09-19T06:17:59;21.70;99.90
19007;DHT22;9636;47.382;8.480;2023-09-19T06:20:29;21.70;99.90
19007;DHT22;9636;47.382;8.480;2023-09-19T06:22:57;21.70;99.90
19007;DHT22;9636;47.382;8.480;2023-09-19T06:25:24;21.80;99.90
19007;DHT22;9636;47.382;8.480;2023-09-19T06:27:52;21.90;99.90
19007;DHT22;9636;47.382;8.480;2023-09-19T06:30:19;22.00;99.90
19007;DHT22;9636;47.382;8.480;2023-09-19T06:32:47;22.00;99.90
19007;DHT22;9636;47.382;8.480;2023-09-19T06:35:15;22.00;99.90
19007;DHT22;9636;47.382;8.480;2023-09-19T06:37:44;22.10;99.90
19007;DHT22;9636;47.382;8.480;2023-09-19T06:40:11;22.10;99.90
19007;DHT22;9636;47.382;8.480;2023-09-19T06:42:40;22.10;99.90
19007;DHT22;9636;47.382;8.480;2023-09-19T06:45:08;22.10;99.90
19007;DHT22;9636;47.382;8.480;2023-09-19T06:47:37;22.10;99.90
19007;DHT22;9636;47.382;8.480;2023-09-19T06:50:04;22.10;99.90
19007;DHT22;9636;47.382;8.480;2023-09-19T06:52:31;22.10;99.90
19007;DHT22;9636;47.382;8.480;2023-09-19T06:55:00;22.10;99.90
19007;DHT22;9636;47.382;8.480;2023-09-19T06:57:28;22.20;99.90
19007;DHT22;9636;47.382;8.480;2023-09-19T06:59:56;22.20;99.90
19007;DHT22;9636;47.382;8.480;2023-09-19T07:02:23;22.20;99.90
19007;DHT22;9636;47.382;8.480;2023-09-19T07:04:49;22.20;99.90
19007;DHT22;9636;47.382;8.480;2023-09-19T07:07:17;22.30;99.90
19007;DHT22;9636;47.382;8.480;2023-09-19T07:09:43;22.30;99.90
19007;DHT22;9636;47.382;8.480;2023-09-19T07:12:12;22.30;99.90
19007;DHT22;9636;47.382;8.480;2023-09-19T07:14:39;22.30;99.90
19007;DHT22;9636;47.382;8.480;2023-09-19T07:17:06;22.30;99.90
19007;DHT22;9636;47.382;8.480;2023-09-19T07:19:33;22.40;99.90
19007;DHT22;9636;47.382;8.480;2023-09-19T07:22:00;22.40;99.90
19007;DHT22;9636;47.382;8.480;2023-09-19T07:24:28;22.40;99.90
19007;DHT22;9636;47.382;8.480;2023-09-19T07:26:54;22.50;99.90
19007;DHT22;9636;47.382;8.480;2023-09-19T07:29:23;22.50;99.90
19007;DHT22;9636;47.382;8.480;2023-09-19T07:31:51;22.60;99.90
19007;DHT22;9636;47.382;8.480;2023-09-19T07:34:18;22.60;99.90
19007;DHT22;9636;47.382;8.480;2023-09-19T07:36:46;22.70;99.90
19007;DHT22;9636;47.382;8.480;2023-09-19T07:39:13;22.70;99.90
19007;DHT22;9636;47.382;8.480;2023-09-19T07:41:40;22.80;99.90
19007;DHT22;9636;47.382;8.480;2023-09-19T07:44:07;22.80;99.90
19007;DHT22;9636;47.382;8.480;2023-09-19T07:46:35;22.90;99.90
19007;DHT22;9636;47.382;8.480;2023-09-19T07:49:02;23.00;99.90
19007;DHT22;9636;47.382;8.480;2023-09-19T07:51:30;23.10;99.90
19007;DHT22;9636;47.382;8.480;2023-09-19T07:53:58;23.10;99.90
19007;DHT22;9636;47.382;8.480;2023-09-19T07:56:25;23.20;99.90
19007;DHT22;9636;47.382;8.480;2023-09-19T07:58:53;23.20;99.90
19007;DHT22;9636;47.382;8.480;2023-09-19T08:01:20;23.20;99.90
19007;DHT22;9636;47.382;8.480;2023-09-19T08:03:50;23.30;99.90
19007;DHT22;9636;47.382;8.480;2023-09-19T08:06:17;23.30;99.90
19007;DHT22;9636;47.382;8.480;2023-09-19T08:08:45;23.40;99.90
19007;DHT22;9636;47.382;8.480;2023-09-19T08:11:12;23.40;99.90
19007;DHT22;9636;47.382;8.480;2023-09-19T08:13:47;23.40;99.90
19007;DHT22;9636;47.382;8.480;2023-09-19T08:16:14;23.40;99.90
19007;DHT22;9636;47.382;8.480;2023-09-19T08:18:41;23.40;99.90
19007;DHT22;9636;47.382;8.480;2023-09-19T08:21:11;23.40;99.90
19007;DHT22;9636;47.382;8.480;2023-09-19T08:23:41;23.40;99.90
19007;DHT22;9636;47.382;8.480;2023-09-19T08:26:08;23.50;99.90
19007;DHT22;9636;47.382;8.480;2023-09-19T08:28:36;23.50;99.90
19007;DHT22;9636;47.382;8.480;2023-09-19T08:31:07;23.70;99.90
19007;DHT22;9636;47.382;8.480;2023-09-19T08:33:35;23.70;99.90
19007;DHT22;9636;47.382;8.480;2023-09-19T08:36:02;23.80;99.90
19007;DHT22;9636;47.382;8.480;2023-09-19T08:38:33;23.90;99.90
19007;DHT22;9636;47.382;8.480;2023-09-19T08:41:00;24.10;99.90
19007;DHT22;9636;47.382;8.480;2023-09-19T08:43:27;24.00;99.90
19007;DHT22;9636;47.382;8.480;2023-09-19T08:45:58;23.90;99.90
19007;DHT22;9636;47.382;8.480;2023-09-19T08:48:29;23.90;99.90
19007;DHT22;9636;47.382;8.480;2023-09-19T08:51:06;23.90;99.90
19007;DHT22;9636;47.382;8.480;2023-09-19T08:53:40;23.90;99.90
19007;DHT22;9636;47.382;8.480;2023-09-19T08:56:09;23.90;99.90
19007;DHT22;9636;47.382;8.480;2023-09-19T08:58:44;23.90;99.90
19007;DHT22;9636;47.382;8.480;2023-09-19T09:01:15;23.90;99.90
19007;DHT22;9636;47.382;8.480;2023-09-19T09:03:43;23.90;99.90
19007;DHT22;9636;47.382;8.480;2023-09-19T09:06:14;23.90;99.90
19007;DHT22;9636;47.382;8.480;2023-09-19T09:08:43;23.90;99.90
19007;DHT22;9636;47.382;8.480;2023-09-19T09:11:11;23.90;99.90
19007;DHT22;9636;47.382;8.480;2023-09-19T09:13:38;24.00;99.90
19007;DHT22;9636;47.382;8.480;2023-09-19T09:16:06;24.10;99.90
19007;DHT22;9636;47.382;8.480;2023-09-19T09:18:33;24.10;99.90
19007;DHT22;9636;47.382;8.480;2023-09-19T09:21:00;24.20;99.90
19007;DHT22;9636;47.382;8.480;2023-09-19T09:23:27;24.30;99.90
19007;DHT22;9636;47.382;8.480;2023-09-19T09:25:57;24.30;99.90
19007;DHT22;9636;47.382;8.480;2023-09-19T09:28:29;24.40;99.90
19007;DHT22;9636;47.382;8.480;2023-09-19T09:30:56;24.40;99.90
19007;DHT22;9636;47.382;8.480;2023-09-19T09:33:24;24.50;99.90
19007;DHT22;9636;47.382;8.480;2023-09-19T09:35:52;24.60;99.90
19007;DHT22;9636;47.382;8.480;2023-09-19T09:38:23;24.70;99.90
19007;DHT22;9636;47.382;8.480;2023-09-19T09:40:54;24.80;99.90
19007;DHT22;9636;47.382;8.480;2023-09-19T09:43:33;24.90;99.90
19007;DHT22;9636;47.382;8.480;2023-09-19T09:46:11;25.10;99.90
19007;DHT22;9636;47.382;8.480;2023-09-19T09:48:56;25.20;99.90
19007;DHT22;9636;47.382;8.480;2023-09-19T09:51:58;25.20;99.90
19007;DHT22;9636;47.382;8.480;2023-09-19T09:54:26;25.10;99.90
19007;DHT22;9636;47.382;8.480;2023-09-19T09:57:03;25.10;99.90
19007;DHT22;9636;47.382;8.480;2023-09-19T09:59:46;25.10;99.90
19007;DHT22;9636;47.382;8.480;2023-09-19T10:02:15;25.20;99.90
19007;DHT22;9636;47.382;8.480;2023-09-19T10:04:51;25.20;99.90
19007;DHT22;9636;47.382;8.480;2023-09-19T10:07:30;25.20;99.90
19007;DHT22;9636;47.382;8.480;2023-09-19T10:10:02;25.20;99.90
19007;DHT22;9636;47.382;8.480;2023-09-19T10:12:43;25.20;99.90
19007;DHT22;9636;47.382;8.480;2023-09-19T10:15:11;25.20;99.90
19007;DHT22;9636;47.382;8.480;2023-09-19T10:17:43;25.20;99.90
19007;DHT22;9636;47.382;8.480;2023-09-19T10:20:13;25.30;99.90
19007;DHT22;9636;47.382;8.480;2023-09-19T10:23:06;25.30;99.90
19007;DHT22;9636;47.382;8.480;2023-09-19T10:25:37;25.40;99.90
19007;DHT22;9636;47.382;8.480;2023-09-19T10:28:06;25.40;99.90
19007;DHT22;9636;47.382;8.480;2023-09-19T10:30:37;25.40;99.90
19007;DHT22;9636;47.382;8.480;2023-09-19T10:33:08;25.50;99.90
19007;DHT22;9636;47.382;8.480;2023-09-19T10:35:38;25.50;99.90
19007;DHT22;9636;47.382;8.480;2023-09-19T10:38:07;25.60;99.90
19007;DHT22;9636;47.382;8.480;2023-09-19T10:40:37;25.60;99.90
19007;DHT22;9636;47.382;8.480;2023-09-19T10:43:11;25.60;99.90
19007;DHT22;9636;47.382;8.480;2023-09-19T10:45:39;25.70;99.90
19007;DHT22;9636;47.382;8.480;2023-09-19T10:48:07;25.70;99.90
19007;DHT22;9636;47.382;8.480;2023-09-19T10:50:41;25.70;99.90
19007;DHT22;9636;47.382;8.480;2023-09-19T10:53:12;25.80;99.90
19007;DHT22;9636;47.382;8.480;2023-09-19T10:55:41;25.80;99.90
19007;DHT22;9636;47.382;8.480;2023-09-19T10:58:25;25.80;99.90
19007;DHT22;9636;47.382;8.480;2023-09-19T11:00:55;25.90;99.90
19007;DHT22;9636;47.382;8.480;2023-09-19T11:03:23;25.90;99.90
19007;DHT22;9636;47.382;8.480;2023-09-19T11:06:03;25.90;99.90
19007;DHT22;9636;47.382;8.480;2023-09-19T11:08:54;25.90;99.90
19007;DHT22;9636;47.382;8.480;2023-09-19T11:11:40;25.90;99.90
19007;DHT22;9636;47.382;8.480;2023-09-19T11:14:14;25.90;99.90
19007;DHT22;9636;47.382;8.480;2023-09-19T11:23:20;26.00;99.90
19007;DHT22;9636;47.382;8.480;2023-09-19T11:25:51;26.00;99.90
19007;DHT22;9636;47.382;8.480;2023-09-19T11:28:43;26.00;99.90
19007;DHT22;9636;47.382;8.480;2023-09-19T11:34:48;26.10;99.90
19007;DHT22;9636;47.382;8.480;2023-09-19T11:40:28;26.30;99.90
19007;DHT22;9636;47.382;8.480;2023-09-19T11:42:57;26.40;99.90
19007;DHT22;9636;47.382;8.480;2023-09-19T11:46:01;26.40;99.90
19007;DHT22;9636;47.382;8.480;2023-09-19T11:48:28;26.30;93.60
19007;DHT22;9636;47.382;8.480;2023-09-19T11:50:56;25.80;92.60
19007;DHT22;9636;47.382;8.480;2023-09-19T11:53:31;25.50;92.20
19007;DHT22;9636;47.382;8.480;2023-09-19T11:56:02;25.60;92.60
19007;DHT22;9636;47.382;8.480;2023-09-19T11:58:35;25.50;92.40
19007;DHT22;9636;47.382;8.480;2023-09-19T12:01:05;25.40;92.50
19007;DHT22;9636;47.382;8.480;2023-09-19T12:03:40;25.40;93.70
19007;DHT22;9636;47.382;8.480;2023-09-19T12:06:12;25.40;91.90
19007;DHT22;9636;47.382;8.480;2023-09-19T12:08:40;25.50;92.20
19007;DHT22;9636;47.382;8.480;2023-09-19T12:11:13;25.40;92.40
19007;DHT22;9636;47.382;8.480;2023-09-19T12:13:43;25.40;92.50
19007;DHT22;9636;47.382;8.480;2023-09-19T12:16:15;25.30;92.60
19007;DHT22;9636;47.382;8.480;2023-09-19T12:18:43;25.40;93.00
19007;DHT22;9636;47.382;8.480;2023-09-19T12:21:25;25.40;93.20
19007;DHT22;9636;47.382;8.480;2023-09-19T12:23:58;25.50;92.10
19007;DHT22;9636;47.382;8.480;2023-09-19T12:26:26;25.30;91.10
19007;DHT22;9636;47.382;8.480;2023-09-19T12:28:56;25.30;91.50
19007;DHT22;9636;47.382;8.480;2023-09-19T12:31:24;25.30;91.10
19007;DHT22;9636;47.382;8.480;2023-09-19T12:33:55;25.20;91.30
19007;DHT22;9636;47.382;8.480;2023-09-19T12:36:22;25.20;91.50
19007;DHT22;9636;47.382;8.480;2023-09-19T12:38:54;25.30;92.10
19007;DHT22;9636;47.382;8.480;2023-09-19T12:41:22;25.50;92.80
19007;DHT22;9636;47.382;8.480;2023-09-19T12:43:49;25.60;93.30
19007;DHT22;9636;47.382;8.480;2023-09-19T12:46:21;25.70;92.70
19007;DHT22;9636;47.382;8.480;2023-09-19T12:49:15;25.70;91.20
19007;DHT22;9636;47.382;8.480;2023-09-19T12:51:43;25.70;91.40
19007;DHT22;9636;47.382;8.480;2023-09-19T12:54:10;25.80;90.90
19007;DHT22;9636;47.382;8.480;2023-09-19T12:56:40;25.80;90.00
19007;DHT22;9636;47.382;8.480;2023-09-19T12:59:11;25.50;88.70
19007;DHT22;9636;47.382;8.480;2023-09-19T13:01:40;25.60;89.60
19007;DHT22;9636;47.382;8.480;2023-09-19T13:04:16;25.80;90.20
19007;DHT22;9636;47.382;8.480;2023-09-19T13:06:45;25.80;90.60
19007;DHT22;9636;47.382;8.480;2023-09-19T13:09:14;25.70;90.00
19007;DHT22;9636;47.382;8.480;2023-09-19T13:11:42;25.70;90.20
19007;DHT22;9636;47.382;8.480;2023-09-19T13:14:15;25.50;89.90
19007;DHT22;9636;47.382;8.480;2023-09-19T13:16:55;25.60;90.70
19007;DHT22;9636;47.382;8.480;2023-09-19T13:19:36;25.60;90.00
19007;DHT22;9636;47.382;8.480;2023-09-19T13:22:03;25.60;90.00
19007;DHT22;9636;47.382;8.480;2023-09-19T13:24:30;25.60;89.00
19007;DHT22;9636;47.382;8.480;2023-09-19T13:26:58;25.60;90.10
19007;DHT22;9636;47.382;8.480;2023-09-19T13:29:26;25.50;89.60
19007;DHT22;9636;47.382;8.480;2023-09-19T13:31:54;25.40;90.30
19007;DHT22;9636;47.382;8.480;2023-09-19T13:34:21;25.20;90.00
19007;DHT22;9636;47.382;8.480;2023-09-19T13:36:49;25.30;90.90
19007;DHT22;9636;47.382;8.480;2023-09-19T13:39:16;25.60;90.90
19007;DHT22;9636;47.382;8.480;2023-09-19T13:41:44;25.70;90.00
19007;DHT22;9636;47.382;8.480;2023-09-19T13:44:12;25.70;90.10
19007;DHT22;9636;47.382;8.480;2023-09-19T13:46:39;25.80;90.60
19007;DHT22;9636;47.382;8.480;2023-09-19T13:49:10;25.90;90.20
19007;DHT22;9636;47.382;8.480;2023-09-19T13:51:37;25.90;88.70
19007;DHT22;9636;47.382;8.480;2023-09-19T13:54:04;25.70;89.10
19007;DHT22;9636;47.382;8.480;2023-09-19T13:56:31;25.80;88.00
19007;DHT22;9636;47.382;8.480;2023-09-19T13:58:59;26.30;86.40
19007;DHT22;9636;47.382;8.480;2023-09-19T14:01:25;26.60;85.40
19007;DHT22;9636;47.382;8.480;2023-09-19T14:03:52;26.50;86.70
19007;DHT22;9636;47.382;8.480;2023-09-19T14:06:24;26.40;85.80
19007;DHT22;9636;47.382;8.480;2023-09-19T14:08:53;26.60;86.10
19007;DHT22;9636;47.382;8.480;2023-09-19T14:11:20;26.90;83.70
19007;DHT22;9636;47.382;8.480;2023-09-19T14:13:47;26.80;83.70
19007;DHT22;9636;47.382;8.480;2023-09-19T14:16:15;27.00;84.20
19007;DHT22;9636;47.382;8.480;2023-09-19T14:18:42;26.80;83.10
19007;DHT22;9636;47.382;8.480;2023-09-19T14:21:11;26.70;84.10
19007;DHT22;9636;47.382;8.480;2023-09-19T14:23:39;26.80;84.90
19007;DHT22;9636;47.382;8.480;2023-09-19T14:26:07;26.70;85.30
19007;DHT22;9636;47.382;8.480;2023-09-19T14:28:34;26.30;85.20
19007;DHT22;9636;47.382;8.480;2023-09-19T14:31:05;26.30;84.80
19007;DHT22;9636;47.382;8.480;2023-09-19T14:33:33;26.30;84.80
19007;DHT22;9636;47.382;8.480;2023-09-19T14:36:03;26.20;84.40
19007;DHT22;9636;47.382;8.480;2023-09-19T14:38:32;26.00;86.10
19007;DHT22;9636;47.382;8.480;2023-09-19T14:41:01;25.90;86.10
19007;DHT22;9636;47.382;8.480;2023-09-19T14:43:28;25.90;87.40
19007;DHT22;9636;47.382;8.480;2023-09-19T14:45:55;25.90;86.30
19007;DHT22;9636;47.382;8.480;2023-09-19T14:48:23;25.80;86.20
19007;DHT22;9636;47.382;8.480;2023-09-19T14:50:51;25.70;86.40
19007;DHT22;9636;47.382;8.480;2023-09-19T14:53:18;25.50;86.80
19007;DHT22;9636;47.382;8.480;2023-09-19T14:55:45;25.50;87.30
19007;DHT22;9636;47.382;8.480;2023-09-19T14:58:14;25.50;86.30
19007;DHT22;9636;47.382;8.480;2023-09-19T15:00:41;25.50;87.20
19007;DHT22;9636;47.382;8.480;2023-09-19T15:03:10;25.40;86.10
19007;DHT22;9636;47.382;8.480;2023-09-19T15:05:39;25.20;86.40
19007;DHT22;9636;47.382;8.480;2023-09-19T15:08:06;24.90;87.10
19007;DHT22;9636;47.382;8.480;2023-09-19T15:10:32;25.00;90.00
19007;DHT22;9636;47.382;8.480;2023-09-19T15:12:59;25.00;88.20
19007;DHT22;9636;47.382;8.480;2023-09-19T15:15:27;25.00;87.10
19007;DHT22;9636;47.382;8.480;2023-09-19T15:17:54;25.00;88.60
19007;DHT22;9636;47.382;8.480;2023-09-19T15:20:21;24.80;87.40
19007;DHT22;9636;47.382;8.480;2023-09-19T15:22:48;24.70;87.70
19007;DHT22;9636;47.382;8.480;2023-09-19T15:25:16;24.60;88.70
19007;DHT22;9636;47.382;8.480;2023-09-19T15:27:43;24.60;87.80
19007;DHT22;9636;47.382;8.480;2023-09-19T15:30:11;24.70;88.80
19007;DHT22;9636;47.382;8.480;2023-09-19T15:32:42;24.50;88.70
19007;DHT22;9636;47.382;8.480;2023-09-19T15:35:08;24.40;89.80
19007;DHT22;9636;47.382;8.480;2023-09-19T15:37:37;24.60;90.60
19007;DHT22;9636;47.382;8.480;2023-09-19T15:40:04;24.60;90.30
19007;DHT22;9636;47.382;8.480;2023-09-19T15:42:34;24.40;89.20
19007;DHT22;9636;47.382;8.480;2023-09-19T15:45:00;24.50;90.40
19007;DHT22;9636;47.382;8.480;2023-09-19T15:47:28;24.40;89.40
19007;DHT22;9636;47.382;8.480;2023-09-19T15:49:57;24.30;89.00
19007;DHT22;9636;47.382;8.480;2023-09-19T15:52:24;24.20;89.70
19007;DHT22;9636;47.382;8.480;2023-09-19T15:54:51;24.30;89.50
19007;DHT22;9636;47.382;8.480;2023-09-19T15:57:18;24.30;89.80
19007;DHT22;9636;47.382;8.480;2023-09-19T15:59:45;24.20;88.50
19007;DHT22;9636;47.382;8.480;2023-09-19T16:02:12;24.20;90.00
19007;DHT22;9636;47.382;8.480;2023-09-19T16:04:39;24.30;89.70
19007;DHT22;9636;47.382;8.480;2023-09-19T16:07:07;24.30;90.90
19007;DHT22;9636;47.382;8.480;2023-09-19T16:09:34;24.20;90.50
19007;DHT22;9636;47.382;8.480;2023-09-19T16:12:01;23.90;90.00